Time;durP1;ratioP1;P1;durP2;ratioP2;P2;SDS_P1;SDS_P2;PMS_P1;PMS_P2;Temp;Humidity;BMP_temperature;BMP_pressure;BME280_temperature;BME280_humidity;BME280_pressure;Samples;Min_cycle;Max_cycle;Signal;HPM_P1;HPM_P2
2023/06/08 14:37:40;;;;;;;;;10.67;9.67;;;;;23.26;57.57;98278.41;5279281;23;104315;-72
2023/06/08 14:40:08;;;;;;;;;8.33;7.33;;;;;23.24;55.91;98261.28;4920282;28;103779;-72
2023/06/08 14:42:36;;;;;;;;;11.33;9.00;;;;;23.23;57.31;98273.47;4922306;28;102109;-72
2023/06/08 14:45:05;;;;;;;;;12.33;12.00;;;;;22.87;58.56;98272.97;4924458;28;104478;-72
2023/06/08 14:47:35;;;;;;;;;9.00;9.00;;;;;22.82;57.88;98261.97;4924602;28;104015;-72
2023/06/08 14:50:03;;;;;;;;;10.00;8.67;;;;;22.82;59.14;98261.16;4924261;28;102174;-72
2023/06/08 14:52:30;;;;;;;;;10.00;8.67;;;;;22.73;57.53;98260.94;4918284;28;102022;-72
2023/06/08 14:54:58;;;;;;;;;13.00;12.67;;;;;22.12;59.33;98253.06;4920610;28;102466;-72
2023/06/08 14:57:26;;;;;;;;;13.67;13.33;;;;;22.00;58.00;98249.81;4925397;28;104333;-73
2023/06/08 14:59:53;;;;;;;;;12.67;11.67;;;;;22.10;59.00;98251.72;4925635;28;102150;-72
2023/06/08 15:02:20;;;;;;;;;11.67;11.00;;;;;22.48;58.56;98247.31;4915517;28;102308;-73
2023/06/08 15:04:50;;;;;;;;;9.00;9.00;;;;;22.56;57.67;98253.03;4917296;28;102063;-73
2023/06/08 15:07:18;;;;;;;;;13.00;12.00;;;;;22.71;57.69;98249.38;4921067;28;108869;-73
2023/06/08 15:09:46;;;;;;;;;13.67;13.00;;;;;22.58;57.04;98259.09;4921948;28;102075;-73
2023/06/08 15:12:13;;;;;;;;;11.00;11.00;;;;;22.67;57.37;98242.75;4921039;28;102226;-73
2023/06/08 15:14:40;;;;;;;;;12.33;10.33;;;;;22.48;57.25;98247.31;4918957;28;102353;-72
2023/06/08 15:17:07;;;;;;;;;7.00;6.33;;;;;22.63;56.44;98247.22;4924654;28;103833;-73
2023/06/08 15:19:35;;;;;;;;;11.67;11.67;;;;;22.12;58.28;98249.47;4925043;28;102084;-73
2023/06/08 15:24:50;;;;;;;;;14.00;12.67;;;;;22.19;61.23;98245.31;2739709;26;104214;-72
2023/06/08 15:27:29;;;;;;;;;11.00;11.00;;;;;22.25;61.53;98246.09;4884195;28;107626;-71
2023/06/08 15:30:07;;;;;;;;;11.00;10.33;;;;;22.51;60.32;98244.00;4891937;28;102059;-72
2023/06/08 15:32:49;;;;;;;;;14.00;13.00;;;;;22.52;60.72;98246.47;4904653;28;103144;-71
2023/06/08 15:35:32;;;;;;;;;14.00;12.67;;;;;22.72;59.82;98253.78;4904845;28;102304;-71
2023/06/08 15:38:16;;;;;;;;;13.33;12.00;;;;;22.92;57.99;98248.09;4906238;28;102113;-71
2023/06/08 15:41:01;;;;;;;;;9.00;9.00;;;;;22.79;58.08;98251.50;4908575;28;101870;-71
2023/06/08 15:43:39;;;;;;;;;9.33;9.33;;;;;22.57;60.37;98238.16;4910049;28;101549;-71
2023/06/08 15:46:22;;;;;;;;;11.00;10.33;;;;;22.27;59.26;98238.38;4908484;28;102019;-71
2023/06/08 15:49:08;;;;;;;;;8.33;8.00;;;;;22.32;59.37;98229.25;4903213;28;102429;-71
2023/06/08 15:51:47;;;;;;;;;7.00;7.00;;;;;22.40;59.54;98231.41;4911254;28;102166;-71
2023/06/08 15:54:30;;;;;;;;;5.00;4.67;;;;;22.56;59.72;98235.69;4902530;28;107001;-71
2023/06/08 15:57:08;;;;;;;;;6.33;6.33;;;;;22.52;57.96;98240.13;4906007;28;101654;-70
2023/06/08 15:59:35;;;;;;;;;12.67;12.67;;;;;22.51;58.17;98236.56;4913478;28;103360;-71
2023/06/08 16:02:02;;;;;;;;;8.33;8.33;;;;;22.64;58.88;98224.88;4914860;28;101576;-70
2023/06/08 16:04:30;;;;;;;;;12.67;10.33;;;;;22.93;58.76;98230.44;4912662;28;101642;-71
2023/06/08 16:06:57;;;;;;;;;11.33;10.00;;;;;22.89;58.21;98234.88;4903594;28;102234;-70
2023/06/08 16:09:24;;;;;;;;;11.33;10.67;;;;;23.18;59.84;98232.13;4900361;28;103259;-70
2023/06/08 16:11:51;;;;;;;;;8.33;8.00;;;;;23.28;57.15;98237.53;4905973;28;102694;-72
2023/06/08 16:14:18;;;;;;;;;7.67;6.67;;;;;23.11;56.84;98237.16;4911125;28;101711;-70
2023/06/08 16:16:45;;;;;;;;;9.00;9.00;;;;;22.85;57.32;98239.34;4909154;28;101994;-70
2023/06/08 16:19:12;;;;;;;;;7.00;6.33;;;;;22.66;58.64;98241.13;4909233;28;103488;-71
2023/06/08 16:21:45;;;;;;;;;5.33;4.33;;;;;22.55;59.25;98232.13;4909484;28;102102;-70
2023/06/08 16:24:21;;;;;;;;;8.00;8.00;;;;;22.32;60.87;98232.00;4912133;28;101666;-70
2023/06/08 16:26:48;;;;;;;;;7.00;7.00;;;;;22.15;61.79;98226.91;4912140;28;101936;-70
2023/06/08 16:29:15;;;;;;;;;8.00;8.00;;;;;21.99;62.23;98231.66;4910488;28;103449;-70
2023/06/08 16:31:42;;;;;;;;;7.00;6.00;;;;;21.99;63.47;98228.06;4909527;28;101771;-70
2023/06/08 16:34:09;;;;;;;;;11.00;11.00;;;;;21.74;63.82;98226.25;4910386;28;101808;-70
2023/06/08 16:36:37;;;;;;;;;9.00;9.00;;;;;21.79;64.63;98226.25;4913559;28;102004;-70
2023/06/08 16:39:04;;;;;;;;;9.67;9.67;;;;;21.79;63.98;98216.03;4911367;28;107914;-70
2023/06/08 16:41:31;;;;;;;;;9.00;8.67;;;;;22.01;64.20;98218.44;4889887;28;102854;-70
2023/06/08 16:43:59;;;;;;;;;8.33;8.00;;;;;22.20;64.16;98222.16;4912286;28;101595;-70
2023/06/08 16:46:26;;;;;;;;;9.00;8.67;;;;;22.27;60.87;98227.34;4912815;28;103275;-70
2023/06/08 16:48:54;;;;;;;;;8.33;8.33;;;;;22.23;60.92;98223.53;4909804;28;102948;-71
2023/06/08 16:51:21;;;;;;;;;8.33;8.33;;;;;22.26;61.50;98222.94;4910336;28;101951;-70
2023/06/08 16:53:48;;;;;;;;;13.00;10.67;;;;;22.02;61.86;98213.75;4909268;28;101592;-70
2023/06/08 16:56:15;;;;;;;;;10.33;10.00;;;;;21.98;62.65;98219.00;4912516;28;101481;-70
2023/06/08 16:58:43;;;;;;;;;6.67;6.67;;;;;21.94;62.95;98206.91;4912383;28;103440;-70
2023/06/08 17:01:10;;;;;;;;;8.00;8.00;;;;;22.14;63.41;98211.47;4909125;28;101763;-70
2023/06/08 17:03:38;;;;;;;;;8.00;8.00;;;;;22.13;63.64;98215.31;4911394;28;101745;-72
2023/06/08 17:06:06;;;;;;;;;7.33;7.00;;;;;22.16;63.37;98214.75;4912325;28;101845;-70
2023/06/08 17:08:36;;;;;;;;;11.33;11.00;;;;;21.86;65.73;98220.41;4912039;28;108302;-72
2023/06/08 17:11:03;;;;;;;;;14.33;13.67;;;;;21.78;64.87;98200.63;4907685;28;101557;-71
2023/06/08 17:13:31;;;;;;;;;14.00;13.00;;;;;21.58;66.54;98199.88;4908239;28;101549;-71
2023/06/08 17:15:58;;;;;;;;;9.33;9.33;;;;;21.60;67.05;98222.47;4911122;28;102171;-70
2023/06/08 17:18:26;;;;;;;;;10.00;10.00;;;;;21.65;66.98;98227.94;4904348;28;103325;-71
2023/06/08 17:20:54;;;;;;;;;11.67;10.67;;;;;21.42;67.07;98223.06;4906188;28;102626;-70
2023/06/08 17:23:21;;;;;;;;;15.00;12.67;;;;;21.22;67.96;98230.28;4906769;28;101876;-70
2023/06/08 17:25:48;;;;;;;;;12.33;12.00;;;;;21.13;68.16;98228.38;4908317;28;106354;-71
2023/06/08 17:28:15;;;;;;;;;7.33;7.00;;;;;21.18;66.62;98231.94;4912077;28;103426;-70
2023/06/08 17:30:42;;;;;;;;;11.67;11.67;;;;;21.22;67.67;98232.19;4909340;28;101822;-71
2023/06/08 17:33:09;;;;;;;;;8.00;8.00;;;;;21.37;67.55;98232.16;4910286;28;102041;-71
2023/06/08 17:35:36;;;;;;;;;7.00;6.00;;;;;21.45;67.00;98228.00;4911715;28;101597;-72
2023/06/08 17:38:04;;;;;;;;;8.67;7.33;;;;;21.29;67.81;98221.75;4910869;28;111587;-72
2023/06/08 17:40:34;;;;;;;;;8.00;6.33;;;;;21.35;67.12;98220.59;4910110;28;102116;-71
2023/06/08 17:43:01;;;;;;;;;13.00;12.33;;;;;20.86;69.03;98223.16;4906598;28;101818;-72
2023/06/08 17:45:28;;;;;;;;;10.00;10.00;;;;;21.00;68.79;98220.66;4911075;28;102292;-71
2023/06/08 17:47:57;;;;;;;;;12.00;12.00;;;;;20.73;70.38;98215.47;4907505;28;103492;-70
2023/06/08 17:50:24;;;;;;;;;13.00;12.33;;;;;20.92;69.26;98231.13;4912029;28;101819;-70
2023/06/08 17:53:04;;;;;;;;;8.00;8.00;;;;;21.03;69.29;98231.13;4909529;28;101832;-71
2023/06/08 17:55:32;;;;;;;;;6.00;5.67;;;;;21.05;69.37;98231.66;4913230;28;101985;-70
2023/06/08 17:57:59;;;;;;;;;12.67;11.67;;;;;20.78;70.32;98229.22;4908251;28;103347;-71
2023/06/08 18:00:27;;;;;;;;;7.67;7.67;;;;;20.83;70.28;98231.97;4911174;28;101700;-71
2023/06/08 18:02:55;;;;;;;;;10.00;10.00;;;;;20.85;70.02;98227.81;4910934;28;101794;-71
2023/06/08 18:05:23;;;;;;;;;12.00;12.00;;;;;20.73;70.59;98232.78;4907183;28;102016;-70
2023/06/08 18:07:50;;;;;;;;;9.33;9.00;;;;;20.75;70.45;98227.84;4902091;28;102521;-70
2023/06/08 18:10:17;;;;;;;;;9.00;8.33;;;;;20.39;71.33;98180.34;4912169;28;101519;-70
2023/06/08 18:12:44;;;;;;;;;10.67;9.00;;;;;20.69;70.70;98222.63;4910165;28;101885;-70
2023/06/08 18:15:11;;;;;;;;;10.00;10.00;;;;;20.48;72.47;98227.31;4908065;28;101750;-70
2023/06/08 18:17:38;;;;;;;;;13.00;13.00;;;;;20.41;73.15;98233.06;4912681;28;103492;-71
2023/06/08 18:20:07;;;;;;;;;15.00;13.33;;;;;20.38;72.94;98236.34;4907904;28;101548;-71
2023/06/08 18:22:34;;;;;;;;;13.00;11.33;;;;;20.24;73.46;98209.66;4910169;28;101688;-70
2023/06/08 18:25:02;;;;;;;;;10.00;9.00;;;;;20.22;73.79;98217.38;4905162;28;101985;-71
2023/06/08 18:27:32;;;;;;;;;8.00;8.00;;;;;20.24;73.30;98221.47;4907186;28;102534;-71
2023/06/08 18:30:00;;;;;;;;;8.00;8.00;;;;;20.27;72.90;98222.84;4909918;28;102128;-71
2023/06/08 18:32:26;;;;;;;;;5.00;4.00;;;;;20.25;74.15;98225.03;4910638;28;101779;-71
2023/06/08 18:34:54;;;;;;;;;4.33;4.33;;;;;20.22;73.76;98223.66;4910461;28;102253;-71
2023/06/08 18:37:21;;;;;;;;;4.33;4.00;;;;;20.21;74.02;98227.53;4906409;28;103349;-70
2023/06/08 18:39:48;;;;;;;;;3.67;3.67;;;;;20.16;73.87;98222.00;4910676;28;102197;-70
2023/06/08 18:42:37;;;;;;;;;3.67;3.67;;;;;20.09;74.55;98224.19;4909986;28;102391;-70
2023/06/08 18:45:05;;;;;;;;;4.67;4.00;;;;;20.07;74.80;98226.38;4912200;28;101963;-71
2023/06/08 18:47:32;;;;;;;;;7.00;7.00;;;;;19.92;75.16;98240.88;4908439;28;108016;-71
2023/06/08 18:50:00;;;;;;;;;6.00;6.00;;;;;19.77;76.26;98232.59;4911231;28;101949;-71
2023/06/08 18:52:29;;;;;;;;;7.00;6.33;;;;;19.58;77.37;98231.44;4910580;28;101697;-71
2023/06/08 18:54:56;;;;;;;;;11.00;9.00;;;;;19.44;78.20;98239.34;4910223;28;101610;-70
2023/06/08 18:57:24;;;;;;;;;7.67;7.67;;;;;19.39;78.45;98244.75;4908045;28;103472;-71
2023/06/08 18:59:51;;;;;;;;;9.00;9.00;;;;;19.42;77.71;98246.13;4908834;28;101595;-70
2023/06/08 19:02:19;;;;;;;;;6.67;5.67;;;;;19.40;79.31;98237.38;4909812;28;102507;-70
2023/06/08 19:04:46;;;;;;;;;5.67;5.00;;;;;19.36;78.38;98248.00;4911542;28;101648;-71
2023/06/08 19:07:13;;;;;;;;;4.00;4.00;;;;;19.30;79.83;98248.28;4910081;28;107940;-71
2023/06/08 19:09:40;;;;;;;;;5.00;5.00;;;;;19.22;79.02;98237.81;4905687;28;102101;-71
2023/06/08 19:12:08;;;;;;;;;7.67;7.00;;;;;19.10;81.20;98249.78;4909749;28;101563;-71
2023/06/08 19:14:38;;;;;;;;;8.67;8.67;;;;;19.07;80.17;98250.31;4911800;28;102033;-71
2023/06/08 19:17:06;;;;;;;;;7.00;6.00;;;;;19.10;79.96;98251.69;4905218;28;103395;-72
2023/06/08 19:19:33;;;;;;;;;4.00;4.00;;;;;19.02;81.88;98254.94;4910681;28;101914;-71
2023/06/08 19:22:00;;;;;;;;;5.00;5.00;;;;;18.91;81.94;98253.25;4908765;28;101577;-71
2023/06/08 19:24:27;;;;;;;;;4.67;4.67;;;;;18.90;81.30;98257.06;4908226;28;101791;-71
2023/06/08 19:26:54;;;;;;;;;4.00;4.00;;;;;18.83;81.64;98253.69;4905981;28;103626;-71
2023/06/08 19:29:21;;;;;;;;;3.00;3.00;;;;;18.71;83.63;98248.41;4906593;28;101806;-72
2023/06/08 19:31:57;;;;;;;;;3.33;3.00;;;;;18.66;83.05;98246.47;4906856;28;101901;-71
2023/06/08 19:34:27;;;;;;;;;4.00;4.00;;;;;18.60;83.66;98239.28;4906881;28;102399;-72
2023/06/08 19:36:55;;;;;;;;;2.67;2.67;;;;;18.59;82.55;98253.25;4906011;28;106485;-72
2023/06/08 19:39:22;;;;;;;;;3.67;3.67;;;;;18.51;83.28;98248.19;4907443;28;101725;-71
2023/06/08 19:41:51;;;;;;;;;1.33;1.33;;;;;18.49;83.17;98251.22;4905877;28;101745;-72
2023/06/08 19:44:23;;;;;;;;;3.00;3.00;;;;;18.35;85.55;98260.94;4904522;28;102094;-72
2023/06/08 19:46:52;;;;;;;;;3.33;2.00;;;;;18.18;86.10;98252.03;4906826;28;102440;-71
2023/06/08 19:49:20;;;;;;;;;4.33;4.33;;;;;18.05;86.80;98246.97;4906156;28;101672;-72
2023/06/08 19:51:48;;;;;;;;;5.00;5.00;;;;;17.96;87.32;98245.78;4910284;28;101907;-72
2023/06/08 19:54:17;;;;;;;;;6.00;5.67;;;;;17.90;88.38;98244.03;4911244;28;101801;-71
2023/06/08 19:56:49;;;;;;;;;7.00;7.00;;;;;17.82;88.38;98253.53;4908428;28;108477;-72
2023/06/08 19:59:18;;;;;;;;;7.67;7.67;;;;;17.68;88.70;98253.09;4907460;28;101651;-72
2023/06/08 20:01:47;;;;;;;;;8.00;7.00;;;;;17.58;89.09;98236.56;4907630;28;101943;-72
2023/06/08 20:04:15;;;;;;;;;7.33;7.00;;;;;17.62;89.79;98242.34;4909195;28;101857;-71
2023/06/08 20:06:52;;;;;;;;;6.00;6.00;;;;;17.61;89.41;98247.00;4906056;28;103359;-71
2023/06/08 20:09:22;;;;;;;;;4.00;4.00;;;;;17.49;89.98;98240.81;4907173;28;102029;-71
2023/06/08 20:11:51;;;;;;;;;8.00;7.00;;;;;17.49;90.81;98249.00;4907795;28;102455;-71
2023/06/08 20:14:19;;;;;;;;;8.33;8.00;;;;;17.37;91.52;98254.59;4913581;28;101580;-71
2023/06/08 20:16:48;;;;;;;;;6.00;5.33;;;;;17.35;91.10;98251.28;4909678;28;108843;-72
2023/06/08 20:19:19;;;;;;;;;5.67;5.67;;;;;17.37;90.39;98249.13;4902106;28;101678;-70
2023/06/08 20:21:47;;;;;;;;;5.67;5.00;;;;;17.38;89.28;98247.22;4913768;28;102052;-72
2023/06/08 20:24:14;;;;;;;;;4.33;4.33;;;;;17.35;89.29;98236.78;4908820;28;101694;-72
2023/06/08 20:26:42;;;;;;;;;5.67;5.00;;;;;17.36;88.83;98255.69;4905038;28;102493;-71
2023/06/08 20:29:09;;;;;;;;;6.00;6.00;;;;;17.34;89.01;98252.34;4900999;28;101957;-71
2023/06/08 20:31:38;;;;;;;;;5.00;4.00;;;;;17.29;90.47;98252.28;4911872;28;101912;-71
2023/06/08 20:34:07;;;;;;;;;4.00;3.00;;;;;17.25;90.28;98245.66;4911587;28;101848;-71
2023/06/08 20:36:34;;;;;;;;;4.00;3.67;;;;;17.22;89.66;98245.34;4910971;28;103383;-72
2023/06/08 20:39:02;;;;;;;;;3.67;3.67;;;;;17.25;90.55;98258.50;4914535;28;101774;-72
2023/06/08 20:41:29;;;;;;;;;3.33;3.33;;;;;17.25;90.15;98259.34;4912101;28;102319;-72
2023/06/08 20:43:57;;;;;;;;;2.00;2.00;;;;;17.22;90.43;98259.84;4909700;28;103702;-71
2023/06/08 20:46:25;;;;;;;;;6.67;6.00;;;;;17.14;90.20;98252.09;4907479;28;103523;-70
2023/06/08 20:48:52;;;;;;;;;8.00;7.00;;;;;17.06;89.63;98238.88;4913226;28;101556;-71
2023/06/08 20:51:20;;;;;;;;;7.67;7.00;;;;;17.09;89.82;98253.91;4907698;28;101701;-70
2023/06/08 20:53:47;;;;;;;;;7.67;7.33;;;;;17.02;90.79;98245.09;4909795;28;101549;-71
2023/06/08 20:56:14;;;;;;;;;8.00;6.33;;;;;16.98;91.13;98246.63;4910209;28;107918;-71
2023/06/08 20:58:41;;;;;;;;;8.75;6.50;;;;;16.98;90.69;98246.63;4913602;28;101999;-71
2023/06/08 21:01:09;;;;;;;;;5.00;5.00;;;;;16.97;91.07;98242.28;4912212;28;101742;-71
2023/06/08 21:03:36;;;;;;;;;5.00;4.00;;;;;16.97;92.60;98239.53;4912445;28;102073;-71
2023/06/08 21:06:03;;;;;;;;;5.00;4.00;;;;;16.82;95.52;98226.47;4907962;28;103443;-71
2023/06/08 21:08:30;;;;;;;;;7.00;6.00;;;;;16.72;95.05;98216.22;4910967;28;101541;-71
2023/06/08 21:10:57;;;;;;;;;8.67;6.33;;;;;16.81;95.31;98230.28;4910197;28;101867;-71
2023/06/08 21:13:24;;;;;;;;;7.00;6.00;;;;;16.75;95.78;98236.75;4909227;28;102048;-72
2023/06/08 21:15:53;;;;;;;;;7.67;7.67;;;;;16.76;94.82;98239.22;4910494;28;103478;-72
2023/06/08 21:18:20;;;;;;;;;8.00;8.00;;;;;16.77;95.49;98229.97;4911971;28;102230;-72
2023/06/08 21:20:47;;;;;;;;;7.00;6.50;;;;;16.81;94.51;98222.91;4913111;28;101692;-72
2023/06/08 21:23:14;;;;;;;;;6.33;6.33;;;;;16.82;93.71;98223.75;4909283;28;102552;-72
2023/06/08 21:25:40;;;;;;;;;3.67;3.67;;;;;16.84;94.18;98233.31;4909931;28;107464;-72
2023/06/08 21:28:08;;;;;;;;;4.00;4.00;;;;;16.87;93.71;98235.59;4911243;28;101486;-72
2023/06/08 21:30:35;;;;;;;;;4.33;4.33;;;;;16.86;93.03;98239.38;4909917;28;101779;-72
2023/06/08 21:33:02;;;;;;;;;7.25;6.75;;;;;16.71;92.86;98217.28;4914369;28;101886;-72
2023/06/08 21:35:29;;;;;;;;;3.00;3.00;;;;;16.67;94.73;98223.50;4907553;28;102390;-72
2023/06/08 21:37:56;;;;;;;;;4.67;4.00;;;;;16.70;94.18;98228.47;4905496;28;103024;-71
2023/06/08 21:40:24;;;;;;;;;6.50;6.00;;;;;16.63;94.74;98230.53;4909165;28;101510;-71
2023/06/08 21:42:51;;;;;;;;;6.00;5.67;;;;;16.59;94.10;98238.41;4914803;28;102617;-71
2023/06/08 21:45:18;;;;;;;;;5.25;5.00;;;;;16.57;94.96;98224.13;4909578;28;103455;-72
2023/06/08 21:47:45;;;;;;;;;5.67;4.67;;;;;16.55;94.44;98237.22;4901866;28;101947;-72
2023/06/08 21:50:14;;;;;;;;;6.75;6.50;;;;;16.53;94.20;98242.09;4908204;28;101411;-72
2023/06/08 21:52:42;;;;;;;;;7.50;6.75;;;;;16.50;93.95;98229.78;4909621;28;101969;-71
2023/06/08 21:55:09;;;;;;;;;6.00;6.00;;;;;16.37;94.39;98221.09;4910497;28;104167;-72
2023/06/08 21:57:37;;;;;;;;;4.67;4.67;;;;;16.33;94.12;98220.75;4911696;28;101645;-72
2023/06/08 22:00:06;;;;;;;;;7.00;7.00;;;;;16.24;94.58;98213.22;4911498;28;106265;-71
